BAW126 EGLL-VTCC
Flight info
| Callsign | BAW126 |
|---|---|
| Flight time | N/A |
| Altitude | 33000 |
| Route | DET L6 DVR L9 KONAN UL607 KOK DCT MATUG DCT AMASI DCT BOMBI DCT TENLO DCT DEXIT DCT MAREG DCT ALAMU DCT BUDOP DCT UDROS UM859 KARDE UN644 FALAZ/N0483F350 UN644 ROLIN N644 LAGAS M747 SUBUT T923 ERLEV M11 RODAR A909 NINOP B475 DAVET P173 GUNKO/N0481F370 P173 TAPIS L509 SULOM A466 ASARI L509 GGC R460 CEA B465 MDY R207 MACHI W36 LAMUN LAMUN2X |
| Aircraft | B744/H-SDE3FGHIM1M2RWXY/LB1 |
Departure
| Time | N/A |
|---|---|
| Airport | London Heathrow Airport (EGLL) |
Arrival
| Time | 2026-04-19 06:54 |
|---|---|
| Airport | Chiang Mai International Airport (VTCC) |
| Time | Latitude | Longitude | Altitude | Speed | Heading |
|---|---|---|---|---|---|
| 2026-04-19 06:30 | 20.41608 | 97.50033 | 34488 ft | 523 kts | 145° |
| 2026-04-19 06:30 | 20.38731 | 97.52583 | 33750 ft | 544 kts | 144° |
| 2026-04-19 06:30 | 20.35830 | 97.55162 | 33039 ft | 538 kts | 144° |
| 2026-04-19 06:30 | 20.32974 | 97.57711 | 32500 ft | 532 kts | 144° |
| 2026-04-19 06:31 | 20.30155 | 97.60231 | 31992 ft | 525 kts | 144° |
| 2026-04-19 06:31 | 20.27364 | 97.62727 | 31578 ft | 522 kts | 144° |
| 2026-04-19 06:31 | 20.24597 | 97.65194 | 31117 ft | 516 kts | 144° |
| 2026-04-19 06:31 | 20.21859 | 97.67631 | 30618 ft | 509 kts | 145° |
| 2026-04-19 06:32 | 20.19158 | 97.70031 | 30212 ft | 503 kts | 145° |
| 2026-04-19 06:32 | 20.16517 | 97.72372 | 29752 ft | 497 kts | 145° |
| 2026-04-19 06:32 | 20.13871 | 97.74714 | 29216 ft | 494 kts | 145° |
| 2026-04-19 06:32 | 20.11251 | 97.77033 | 28788 ft | 486 kts | 145° |
| 2026-04-19 06:33 | 20.08663 | 97.79323 | 28369 ft | 482 kts | 145° |
| 2026-04-19 06:33 | 20.06091 | 97.81597 | 27862 ft | 477 kts | 146° |
| 2026-04-19 06:33 | 20.03556 | 97.83838 | 27437 ft | 471 kts | 146° |
| 2026-04-19 06:33 | 20.01047 | 97.86054 | 27018 ft | 469 kts | 146° |
| 2026-04-19 06:34 | 19.98542 | 97.88262 | 26538 ft | 465 kts | 146° |
| 2026-04-19 06:34 | 19.96068 | 97.90444 | 26105 ft | 460 kts | 146° |
| 2026-04-19 06:34 | 19.93612 | 97.92609 | 25663 ft | 458 kts | 145° |
| 2026-04-19 06:34 | 19.91167 | 97.94764 | 25157 ft | 455 kts | 145° |
| 2026-04-19 06:35 | 19.88737 | 97.96907 | 24718 ft | 451 kts | 145° |
| 2026-04-19 06:35 | 19.86331 | 97.99028 | 24308 ft | 449 kts | 145° |
| 2026-04-19 06:35 | 19.83933 | 98.01141 | 23831 ft | 447 kts | 145° |
| 2026-04-19 06:35 | 19.81582 | 98.03214 | 23357 ft | 442 kts | 145° |
| 2026-04-19 06:36 | 19.79226 | 98.05291 | 22927 ft | 438 kts | 145° |
| 2026-04-19 06:36 | 19.76888 | 98.07366 | 22463 ft | 437 kts | 144° |
| 2026-04-19 06:36 | 19.74579 | 98.09431 | 21997 ft | 431 kts | 144° |
| 2026-04-19 06:36 | 19.72291 | 98.11478 | 21610 ft | 427 kts | 144° |
| 2026-04-19 06:37 | 19.70028 | 98.13501 | 21203 ft | 425 kts | 144° |
| 2026-04-19 06:37 | 19.67785 | 98.15503 | 20763 ft | 419 kts | 144° |
| 2026-04-19 06:37 | 19.65569 | 98.17477 | 20368 ft | 412 kts | 144° |
| 2026-04-19 06:37 | 19.63380 | 98.19425 | 20006 ft | 409 kts | 144° |
| 2026-04-19 06:38 | 19.61211 | 98.21351 | 19578 ft | 404 kts | 144° |
| 2026-04-19 06:38 | 19.59066 | 98.23255 | 19166 ft | 401 kts | 144° |
| 2026-04-19 06:38 | 19.56946 | 98.25137 | 18808 ft | 396 kts | 144° |
| 2026-04-19 06:38 | 19.54834 | 98.27012 | 18380 ft | 393 kts | 144° |
| 2026-04-19 06:39 | 19.52751 | 98.28864 | 17917 ft | 390 kts | 143° |
| 2026-04-19 06:39 | 19.50692 | 98.30694 | 17508 ft | 385 kts | 143° |
| 2026-04-19 06:39 | 19.48662 | 98.32499 | 17089 ft | 385 kts | 143° |
| 2026-04-19 06:39 | 19.46621 | 98.34314 | 16652 ft | 382 kts | 143° |
| 2026-04-19 06:40 | 19.44594 | 98.36118 | 16264 ft | 379 kts | 143° |
| 2026-04-19 06:40 | 19.42572 | 98.37921 | 15841 ft | 379 kts | 143° |
| 2026-04-19 06:40 | 19.40551 | 98.39730 | 15377 ft | 382 kts | 143° |
| 2026-04-19 06:40 | 19.38502 | 98.41566 | 14854 ft | 387 kts | 144° |
| 2026-04-19 06:41 | 19.36435 | 98.43398 | 14375 ft | 388 kts | 144° |
| 2026-04-19 06:41 | 19.34367 | 98.45223 | 14239 ft | 386 kts | 144° |
| 2026-04-19 06:41 | 19.32298 | 98.47043 | 13982 ft | 391 kts | 144° |
| 2026-04-19 06:41 | 19.30216 | 98.48874 | 13389 ft | 386 kts | 144° |
| 2026-04-19 06:42 | 19.28169 | 98.50679 | 12568 ft | 382 kts | 143° |
| 2026-04-19 06:42 | 19.26132 | 98.52477 | 12085 ft | 378 kts | 143° |
| 2026-04-19 06:42 | 19.24118 | 98.54258 | 11832 ft | 375 kts | 143° |
| 2026-04-19 06:42 | 19.22114 | 98.56031 | 11543 ft | 376 kts | 143° |
| 2026-04-19 06:43 | 19.20113 | 98.57800 | 11162 ft | 373 kts | 143° |
| 2026-04-19 06:43 | 19.18144 | 98.59542 | 10850 ft | 359 kts | 143° |
| 2026-04-19 06:43 | 19.16295 | 98.61189 | 10720 ft | 338 kts | 143° |
| 2026-04-19 06:43 | 19.14556 | 98.62739 | 10614 ft | 317 kts | 143° |
| 2026-04-19 06:44 | 19.12912 | 98.64199 | 10482 ft | 301 kts | 144° |
| 2026-04-19 06:44 | 19.11330 | 98.65594 | 10318 ft | 293 kts | 144° |
| 2026-04-19 06:44 | 19.09812 | 98.66945 | 9981 ft | 287 kts | 141° |
| 2026-04-19 06:44 | 19.08601 | 98.68625 | 9531 ft | 292 kts | 119° |
| 2026-04-19 06:45 | 19.07885 | 98.70624 | 9043 ft | 285 kts | 112° |
| 2026-04-19 06:45 | 19.07322 | 98.72546 | 8753 ft | 270 kts | 110° |
| 2026-04-19 06:45 | 19.06805 | 98.74433 | 8454 ft | 265 kts | 109° |
| 2026-04-19 06:45 | 19.06299 | 98.76304 | 8412 ft | 264 kts | 110° |
| 2026-04-19 06:46 | 19.05787 | 98.78180 | 8412 ft | 265 kts | 110° |
| 2026-04-19 06:46 | 19.05273 | 98.80073 | 8403 ft | 268 kts | 107° |
| 2026-04-19 06:46 | 19.05110 | 98.82064 | 8283 ft | 274 kts | 94° |
| 2026-04-19 06:46 | 19.05076 | 98.84036 | 8050 ft | 262 kts | 93° |
| 2026-04-19 06:47 | 19.05063 | 98.85921 | 7785 ft | 254 kts | 92° |
| 2026-04-19 06:47 | 19.05057 | 98.87771 | 7435 ft | 250 kts | 92° |
| 2026-04-19 06:47 | 19.05052 | 98.89598 | 7086 ft | 247 kts | 92° |
| 2026-04-19 06:47 | 19.05048 | 98.91415 | 6703 ft | 247 kts | 91° |
| 2026-04-19 06:48 | 19.04957 | 98.93210 | 6318 ft | 243 kts | 105° |
| 2026-04-19 06:48 | 19.04257 | 98.94791 | 5959 ft | 234 kts | 131° |
| 2026-04-19 06:48 | 19.03026 | 98.95852 | 5814 ft | 227 kts | 158° |
| 2026-04-19 06:48 | 19.01515 | 98.96241 | 5609 ft | 225 kts | 178° |
| 2026-04-19 06:49 | 18.99971 | 98.96349 | 5297 ft | 220 kts | 181° |
| 2026-04-19 06:49 | 18.98474 | 98.96364 | 5015 ft | 217 kts | 184° |
| 2026-04-19 06:49 | 18.96972 | 98.96343 | 4727 ft | 214 kts | 184° |
| 2026-04-19 06:49 | 18.95488 | 98.96327 | 4467 ft | 211 kts | 182° |
| 2026-04-19 06:50 | 18.94054 | 98.96325 | 4189 ft | 201 kts | 182° |
| 2026-04-19 06:50 | 18.92692 | 98.96325 | 3953 ft | 192 kts | 182° |
| 2026-04-19 06:50 | 18.91394 | 98.96323 | 3700 ft | 182 kts | 182° |
| 2026-04-19 06:50 | 18.90171 | 98.96318 | 3464 ft | 172 kts | 181° |
| 2026-04-19 06:51 | 18.88993 | 98.96317 | 3253 ft | 166 kts | 181° |
| 2026-04-19 06:51 | 18.87849 | 98.96316 | 3088 ft | 162 kts | 181° |
| 2026-04-19 06:51 | 18.86708 | 98.96314 | 2925 ft | 164 kts | 181° |
| 2026-04-19 06:51 | 18.85616 | 98.96312 | 2679 ft | 154 kts | 182° |
| 2026-04-19 06:52 | 18.84573 | 98.96312 | 2445 ft | 146 kts | 182° |
| 2026-04-19 06:52 | 18.83556 | 98.96317 | 2226 ft | 148 kts | 182° |
| 2026-04-19 06:52 | 18.82503 | 98.96327 | 2062 ft | 153 kts | 182° |
| 2026-04-19 06:52 | 18.81431 | 98.96332 | 1862 ft | 154 kts | 183° |
| 2026-04-19 06:53 | 18.80352 | 98.96322 | 1647 ft | 155 kts | 183° |
| 2026-04-19 06:53 | 18.79288 | 98.96313 | 1369 ft | 150 kts | 183° |
| 2026-04-19 06:53 | 18.78282 | 98.96307 | 1109 ft | 140 kts | 184° |
| 2026-04-19 06:53 | 18.77307 | 98.96293 | 1040 ft | 132 kts | 182° |
| 2026-04-19 06:54 | 18.76588 | 98.96284 | 1034 ft | 76 kts | 180° |
| 2026-04-19 06:54 | 18.76254 | 98.96287 | 1031 ft | 16 kts | 179° |
| 2026-04-19 06:54 | 18.76183 | 98.96330 | 1027 ft | 19 kts | 101° |
| 2026-04-19 06:54 | 18.76186 | 98.96458 | 1028 ft | 10 kts | 86° |
| 2026-04-19 06:55 | 18.76237 | 98.96515 | 1030 ft | 13 kts | 5° |
| 2026-04-19 06:55 | 18.76334 | 98.96516 | 1029 ft | 15 kts | 360° |
| 2026-04-19 06:55 | 18.76442 | 98.96515 | 1031 ft | 16 kts | 360° |
| 2026-04-19 06:55 | 18.76562 | 98.96516 | 1031 ft | 18 kts | 0° |
| 2026-04-19 06:56 | 18.76681 | 98.96516 | 1032 ft | 6 kts | 0° |
| 2026-04-19 06:56 | 18.76731 | 98.96539 | 1033 ft | 11 kts | 71° |
| 2026-04-19 06:56 | 18.76741 | 98.96622 | 1031 ft | 7 kts | 69° |
| 2026-04-19 06:56 | 18.76793 | 98.96649 | 1034 ft | 11 kts | 1° |
| 2026-04-19 06:57 | 18.76880 | 98.96648 | 1035 ft | 13 kts | 360° |
| 2026-04-19 06:57 | 18.76920 | 98.96684 | 1033 ft | 10 kts | 111° |
| 2026-04-19 06:57 | 18.76914 | 98.96730 | 1033 ft | 2 kts | 92° |
| 2026-04-19 06:57 | 18.76914 | 98.96736 | 1034 ft | 0 kts | 92° |